LFOB 232330Z AUTO 31006KT CAVOK 13/11 Q1021 NOSIG

ElémentsDécodage
LFOB Station météo située sur l'aérodrome de BEAUVAIS Tillé
232330Z émis le 23 du mois à 23h30 UTC
AUTO Bulletin édité par un automate
31006KT vent du 310°, 06 noeuds
CAVOK Ceiling And Visibility OK
- Visibilité de 10 Km ou plus
- Pas de nuage au-dessous de 1500m ou au-dessous de l'altitude minimale du secteur la plus élevée (si>1500m) et absence de CB
- pas de temps présent significatif
13/11 température 13°C, point de rosée 11°C
 soit une humidité relative de 88%
Q1021 la pression au niveau de la mer (QNH) est de 1021 hPa
NOSIG Pas de changement significatif prévu au cours des deux heures suivant l'heure de l'observation